createdAt,value
2023-05-14T00:00:59.710Z,0.00
2023-05-14T00:01:59.777Z,0.00
2023-05-14T00:02:59.864Z,0.00
2023-05-14T00:03:59.815Z,0.00
2023-05-14T00:04:59.673Z,0.00
2023-05-14T00:06:02.639Z,0.00
2023-05-14T00:06:59.668Z,0.00
2023-05-14T00:07:59.636Z,0.00
2023-05-14T00:08:59.599Z,0.00
2023-05-14T00:09:59.581Z,0.00
2023-05-14T00:10:59.650Z,0.00
2023-05-14T00:11:59.606Z,0.00
2023-05-14T00:12:59.580Z,0.00
2023-05-14T00:13:59.580Z,0.00
2023-05-14T00:14:59.561Z,0.00
2023-05-14T00:15:59.568Z,0.00
2023-05-14T00:16:59.550Z,0.00
2023-05-14T00:18:59.553Z,0.00
2023-05-14T00:19:59.484Z,0.00
2023-05-14T00:21:02.471Z,0.00
2023-05-14T00:21:59.461Z,0.00
2023-05-14T00:22:59.471Z,0.00
2023-05-14T00:23:59.432Z,0.00
2023-05-14T00:24:59.441Z,0.00
2023-05-14T00:25:59.448Z,0.00
2023-05-14T00:26:59.438Z,0.00
2023-05-14T00:27:59.429Z,0.00
2023-05-14T00:28:59.422Z,0.00
2023-05-14T00:29:59.394Z,0.00
2023-05-14T00:30:59.431Z,0.00
2023-05-14T00:31:59.360Z,0.00
2023-05-14T00:32:59.455Z,0.00
2023-05-14T00:33:59.369Z,0.00
2023-05-14T00:34:59.319Z,0.00
2023-05-14T00:36:02.339Z,0.00
2023-05-14T00:36:59.332Z,0.00
2023-05-14T00:37:59.332Z,0.00
2023-05-14T00:38:59.313Z,0.00
2023-05-14T00:39:59.297Z,0.00
2023-05-14T00:41:59.259Z,0.00
2023-05-14T00:42:59.268Z,0.00
2023-05-14T00:43:59.312Z,0.00
2023-05-14T00:44:59.219Z,0.00
2023-05-14T00:45:59.209Z,0.00
2023-05-14T00:46:59.315Z,0.00
2023-05-14T00:47:59.248Z,0.00
2023-05-14T00:48:59.171Z,0.00
2023-05-14T00:49:59.167Z,0.00
2023-05-14T00:51:02.260Z,0.00
2023-05-14T00:51:59.181Z,0.00
2023-05-14T00:52:59.136Z,0.00
2023-05-14T00:53:59.126Z,0.00
2023-05-14T00:54:59.137Z,0.00
2023-05-14T00:55:59.118Z,0.00
2023-05-14T00:56:59.086Z,0.00
2023-05-14T00:57:59.076Z,0.00
2023-05-14T00:58:59.068Z,0.00
2023-05-14T00:59:59.072Z,0.00
2023-05-14T01:01:59.062Z,0.00
2023-05-14T01:02:59.138Z,0.00
2023-05-14T01:03:59.124Z,0.00
2023-05-14T01:04:59.037Z,0.00
2023-05-14T01:06:02.023Z,0.00
2023-05-14T01:06:59.014Z,0.00
2023-05-14T01:08:58.993Z,0.00
2023-05-14T01:09:58.944Z,0.00
2023-05-14T01:10:58.967Z,0.00
2023-05-14T01:11:58.957Z,0.00
2023-05-14T01:12:58.913Z,0.00
2023-05-14T01:13:59.000Z,0.00
2023-05-14T01:14:58.896Z,0.00
2023-05-14T01:15:58.998Z,0.00
2023-05-14T01:16:58.943Z,0.00
2023-05-14T01:17:58.917Z,0.00
2023-05-14T01:18:58.916Z,0.00
2023-05-14T01:19:58.876Z,0.00
2023-05-14T01:21:01.858Z,0.00
2023-05-14T01:21:58.858Z,0.00
2023-05-14T01:22:58.845Z,0.00
2023-05-14T01:24:58.857Z,0.00
2023-05-14T01:25:58.781Z,0.00
2023-05-14T01:26:58.811Z,0.00
2023-05-14T01:27:58.763Z,0.00
2023-05-14T01:28:58.749Z,0.00
2023-05-14T01:29:58.741Z,0.00
2023-05-14T01:30:58.788Z,0.00
2023-05-14T01:31:58.773Z,0.00
2023-05-14T01:32:58.749Z,0.00
2023-05-14T01:33:58.730Z,0.00
2023-05-14T01:34:58.681Z,0.00
2023-05-14T01:36:01.699Z,0.00
2023-05-14T01:36:58.703Z,0.00
2023-05-14T01:37:58.700Z,0.00
2023-05-14T01:38:58.673Z,0.00
2023-05-14T01:39:58.671Z,0.00
2023-05-14T01:41:58.677Z,0.00
2023-05-14T01:42:58.682Z,0.00
2023-05-14T01:43:58.667Z,0.00
2023-05-14T01:44:58.621Z,0.00
2023-05-14T01:45:58.661Z,0.00
2023-05-14T01:46:58.609Z,0.00
2023-05-14T01:47:58.634Z,0.00
2023-05-14T01:48:58.654Z,0.00
2023-05-14T01:49:58.591Z,0.00
2023-05-14T01:51:01.552Z,0.00
2023-05-14T01:51:58.627Z,0.00
2023-05-14T01:52:58.643Z,0.00
2023-05-14T01:53:58.488Z,0.00
2023-05-14T01:54:58.468Z,0.00
2023-05-14T01:55:58.478Z,0.00
2023-05-14T01:56:58.513Z,0.00
2023-05-14T01:57:58.449Z,0.00
2023-05-14T01:58:58.452Z,0.00
2023-05-14T01:59:58.450Z,0.00
2023-05-14T02:00:58.497Z,0.00
2023-05-14T02:01:58.529Z,0.00
2023-05-14T02:02:58.474Z,0.00
2023-05-14T02:03:58.477Z,0.00
2023-05-14T02:04:58.372Z,0.00
2023-05-14T02:06:01.384Z,0.00
2023-05-14T02:06:58.387Z,0.00
2023-05-14T02:07:58.374Z,0.00
2023-05-14T02:08:58.318Z,0.00
2023-05-14T02:09:58.343Z,0.00
2023-05-14T02:10:58.340Z,0.00
2023-05-14T02:11:58.288Z,0.00
2023-05-14T02:12:58.318Z,0.00
2023-05-14T02:13:58.277Z,0.00
2023-05-14T02:15:58.409Z,0.00
2023-05-14T02:16:58.282Z,0.00
2023-05-14T02:17:58.303Z,0.00
2023-05-14T02:18:58.274Z,0.00
2023-05-14T02:19:58.208Z,0.00
2023-05-14T02:21:01.196Z,0.00
2023-05-14T02:21:58.184Z,0.00
2023-05-14T02:22:58.172Z,0.00
2023-05-14T02:23:58.202Z,0.00
2023-05-14T02:24:58.146Z,0.00
2023-05-14T02:25:58.188Z,0.00
2023-05-14T02:26:58.157Z,0.00
2023-05-14T02:27:58.146Z,0.00
2023-05-14T02:28:58.112Z,0.00
2023-05-14T02:29:58.154Z,0.00
2023-05-14T02:30:58.150Z,0.00
2023-05-14T02:31:58.155Z,0.00
2023-05-14T02:32:58.152Z,0.00
2023-05-14T02:33:58.061Z,0.00
2023-05-14T02:34:58.070Z,0.00
2023-05-14T02:36:01.104Z,0.00
2023-05-14T02:36:58.057Z,0.00
2023-05-14T02:37:58.047Z,0.00
2023-05-14T02:38:58.004Z,0.00
2023-05-14T02:39:58.036Z,0.00
2023-05-14T02:40:57.983Z,0.00
2023-05-14T02:41:57.975Z,0.00
2023-05-14T02:42:57.976Z,0.00
2023-05-14T02:43:57.978Z,0.00
2023-05-14T02:44:57.978Z,0.00
2023-05-14T02:45:57.964Z,0.00
2023-05-14T02:46:57.944Z,0.00
2023-05-14T02:47:57.964Z,0.00
2023-05-14T02:48:58.059Z,0.00
2023-05-14T02:49:57.923Z,0.00
2023-05-14T02:51:00.914Z,0.00
2023-05-14T02:51:57.906Z,0.00
2023-05-14T02:52:57.863Z,0.00
2023-05-14T02:53:57.888Z,0.00
2023-05-14T02:54:57.837Z,0.00
2023-05-14T02:55:57.862Z,0.00
2023-05-14T02:56:57.834Z,0.00
2023-05-14T02:57:57.811Z,0.00
2023-05-14T02:58:57.799Z,0.00
2023-05-14T02:59:57.816Z,0.00
2023-05-14T03:00:57.841Z,0.00
2023-05-14T03:01:57.852Z,0.00
2023-05-14T03:02:57.784Z,0.00
2023-05-14T03:03:57.766Z,0.00
2023-05-14T03:04:57.877Z,0.00
2023-05-14T03:06:00.748Z,0.00
2023-05-14T03:06:57.858Z,0.00
2023-05-14T03:07:57.697Z,0.00
2023-05-14T03:08:57.684Z,0.00
2023-05-14T03:09:57.686Z,0.00
2023-05-14T03:10:57.688Z,0.00
2023-05-14T03:11:57.704Z,0.00
2023-05-14T03:12:57.679Z,0.00
2023-05-14T03:13:58.139Z,0.00
2023-05-14T03:14:57.659Z,0.00
2023-05-14T03:15:57.626Z,0.00
2023-05-14T03:16:57.719Z,0.00
2023-05-14T03:17:57.581Z,0.00
2023-05-14T03:18:57.689Z,0.00
2023-05-14T03:19:57.589Z,0.00
2023-05-14T03:21:00.552Z,0.00
2023-05-14T03:21:57.518Z,0.00
2023-05-14T03:22:57.539Z,0.00
2023-05-14T03:23:57.566Z,0.00
2023-05-14T03:24:57.631Z,0.00
2023-05-14T03:25:57.467Z,0.00
2023-05-14T03:26:57.483Z,0.00
2023-05-14T03:27:57.450Z,0.00
2023-05-14T03:28:57.437Z,0.00
2023-05-14T03:29:57.439Z,0.00
2023-05-14T03:30:57.524Z,0.00
2023-05-14T03:31:57.414Z,0.00
2023-05-14T03:32:57.453Z,0.00
2023-05-14T03:33:57.409Z,0.00
2023-05-14T03:34:57.381Z,0.00
2023-05-14T03:36:00.485Z,0.00
2023-05-14T03:36:57.359Z,0.00
2023-05-14T03:37:57.367Z,0.00
2023-05-14T03:38:57.358Z,0.00
2023-05-14T03:39:57.341Z,0.00
2023-05-14T03:40:57.327Z,0.00
2023-05-14T03:41:57.338Z,0.00
2023-05-14T03:42:57.293Z,0.00
2023-05-14T03:43:57.320Z,5.62
2023-05-14T03:44:57.278Z,5.62
2023-05-14T03:45:57.265Z,5.62
2023-05-14T03:46:57.317Z,5.62
2023-05-14T03:47:57.318Z,5.62
2023-05-14T03:48:57.245Z,5.62
2023-05-14T03:49:57.224Z,5.62
2023-05-14T03:51:00.240Z,5.62
2023-05-14T03:51:57.199Z,11.25
2023-05-14T03:52:58.156Z,11.25
2023-05-14T03:53:57.176Z,11.25
2023-05-14T03:54:57.174Z,11.25
2023-05-14T03:55:57.189Z,11.25
2023-05-14T03:56:57.175Z,11.25
2023-05-14T03:57:57.267Z,11.25
2023-05-14T03:58:57.135Z,16.88
2023-05-14T03:59:57.121Z,16.88
2023-05-14T04:00:57.119Z,16.88
2023-05-14T04:01:57.139Z,16.88
2023-05-14T04:02:57.150Z,16.88
2023-05-14T04:03:57.226Z,16.88
2023-05-14T04:04:57.093Z,16.88
2023-05-14T04:06:00.059Z,22.50
2023-05-14T04:06:57.076Z,22.50
2023-05-14T04:07:57.173Z,22.50
2023-05-14T04:08:57.052Z,22.50
2023-05-14T04:09:57.021Z,22.50
2023-05-14T04:10:57.015Z,28.12
2023-05-14T04:11:56.996Z,28.12
2023-05-14T04:12:57.017Z,28.12
2023-05-14T04:13:57.004Z,28.12
2023-05-14T04:14:56.993Z,28.12
2023-05-14T04:15:56.993Z,33.75
2023-05-14T04:16:56.965Z,33.75
2023-05-14T04:17:56.969Z,33.75
2023-05-14T04:18:57.069Z,33.75
2023-05-14T04:19:56.938Z,33.75
2023-05-14T04:20:59.899Z,39.38
2023-05-14T04:21:56.921Z,39.38
2023-05-14T04:22:56.930Z,39.38
2023-05-14T04:23:56.944Z,39.38
2023-05-14T04:24:56.892Z,45.00
2023-05-14T04:26:56.897Z,45.00
2023-05-14T04:27:56.839Z,50.62
2023-05-14T04:28:56.834Z,50.62
2023-05-14T04:29:57.068Z,56.25
2023-05-14T04:30:56.835Z,61.88
2023-05-14T04:31:56.804Z,61.88
2023-05-14T04:32:56.866Z,67.50
2023-05-14T04:33:56.793Z,67.50
2023-05-14T04:34:56.797Z,67.50
2023-05-14T04:35:59.741Z,67.50
2023-05-14T04:36:56.735Z,67.50
2023-05-14T04:37:56.873Z,73.12
2023-05-14T04:38:56.746Z,73.12
2023-05-14T04:39:56.771Z,73.12
2023-05-14T04:40:56.692Z,78.75
2023-05-14T04:41:56.708Z,78.75
2023-05-14T04:42:56.698Z,84.38
2023-05-14T04:43:56.695Z,90.00
2023-05-14T04:44:56.662Z,95.62
2023-05-14T04:45:56.703Z,106.88
2023-05-14T04:46:56.627Z,112.50
2023-05-14T04:47:56.704Z,118.12
2023-05-14T04:49:56.688Z,129.38
2023-05-14T04:50:59.595Z,135.00
2023-05-14T04:51:56.595Z,146.25
2023-05-14T04:52:56.579Z,151.88
2023-05-14T04:53:56.586Z,163.12
2023-05-14T04:54:56.582Z,168.75
2023-05-14T04:55:56.562Z,168.75
2023-05-14T04:56:56.558Z,174.38
2023-05-14T04:57:56.539Z,174.38
2023-05-14T04:58:56.539Z,185.62
2023-05-14T04:59:56.512Z,185.62
2023-05-14T05:00:56.526Z,191.25
2023-05-14T05:01:56.513Z,196.88
2023-05-14T05:02:56.573Z,202.50
2023-05-14T05:03:56.538Z,213.75
2023-05-14T05:04:56.446Z,219.38
2023-05-14T05:05:59.553Z,230.62
2023-05-14T05:07:56.453Z,253.12
2023-05-14T05:08:56.413Z,264.38
2023-05-14T05:09:56.431Z,270.00
2023-05-14T05:10:56.435Z,275.62
2023-05-14T05:11:56.437Z,275.62
2023-05-14T05:12:56.373Z,281.25
2023-05-14T05:13:56.386Z,281.25
2023-05-14T05:15:56.362Z,275.62
2023-05-14T05:16:56.435Z,275.62
2023-05-14T05:17:56.516Z,270.00
2023-05-14T05:18:56.403Z,264.38
2023-05-14T05:19:56.305Z,264.38
2023-05-14T05:20:59.329Z,264.38
2023-05-14T05:21:56.296Z,270.00
2023-05-14T05:22:56.307Z,281.25
2023-05-14T05:23:56.260Z,298.12
2023-05-14T05:24:56.282Z,309.38
2023-05-14T05:25:56.289Z,315.00
2023-05-14T05:27:56.234Z,326.25
2023-05-14T05:28:56.235Z,320.62
2023-05-14T05:29:56.232Z,315.00
2023-05-14T05:30:56.243Z,298.12
2023-05-14T05:31:56.274Z,286.88
2023-05-14T05:32:56.252Z,281.25
2023-05-14T05:33:56.194Z,281.25
2023-05-14T05:34:56.159Z,286.88
2023-05-14T05:35:59.189Z,281.25
2023-05-14T05:36:56.130Z,270.00
2023-05-14T05:37:56.167Z,264.38
2023-05-14T05:38:56.145Z,258.75
2023-05-14T05:39:56.140Z,264.38
2023-05-14T05:40:56.117Z,281.25
2023-05-14T05:41:56.108Z,292.50
2023-05-14T05:42:56.068Z,303.75
2023-05-14T05:43:56.089Z,315.00
2023-05-14T05:44:56.076Z,331.88
2023-05-14T05:45:56.045Z,348.75
2023-05-14T05:46:56.197Z,382.50
2023-05-14T05:47:56.084Z,410.62
2023-05-14T05:48:56.039Z,444.38
2023-05-14T05:49:56.015Z,461.25
2023-05-14T05:50:58.994Z,466.88
2023-05-14T05:52:55.986Z,483.75
2023-05-14T05:53:55.975Z,495.00
2023-05-14T05:54:55.974Z,506.25
2023-05-14T05:55:55.938Z,540.00
2023-05-14T05:56:55.950Z,562.50
2023-05-14T05:57:55.951Z,590.62
2023-05-14T05:58:55.929Z,613.12
2023-05-14T05:59:55.932Z,607.50
2023-05-14T06:00:55.919Z,596.25
2023-05-14T06:01:55.939Z,590.62
2023-05-14T06:02:55.894Z,579.38
2023-05-14T06:03:55.895Z,556.88
2023-05-14T06:04:55.937Z,528.75
2023-05-14T06:05:58.864Z,511.88
2023-05-14T06:06:55.870Z,478.12
2023-05-14T06:07:55.840Z,450.00
2023-05-14T06:08:55.842Z,433.12
2023-05-14T06:09:55.806Z,410.62
2023-05-14T06:10:55.806Z,388.12
2023-05-14T06:11:55.804Z,376.88
2023-05-14T06:12:55.793Z,388.12
2023-05-14T06:13:55.753Z,405.00
2023-05-14T06:14:55.778Z,405.00
2023-05-14T06:15:55.752Z,405.00
2023-05-14T06:16:55.840Z,405.00
2023-05-14T06:17:55.758Z,399.38
2023-05-14T06:18:55.813Z,382.50
2023-05-14T06:19:55.687Z,354.38
2023-05-14T06:20:58.712Z,320.62
2023-05-14T06:21:55.693Z,292.50
2023-05-14T06:22:55.692Z,275.62
2023-05-14T06:23:55.661Z,264.38
2023-05-14T06:25:55.649Z,258.75
2023-05-14T06:26:55.622Z,286.88
2023-05-14T06:27:55.610Z,326.25
2023-05-14T06:28:55.597Z,371.25
2023-05-14T06:29:55.621Z,416.25
2023-05-14T06:30:55.620Z,455.62
2023-05-14T06:31:55.678Z,472.50
2023-05-14T06:32:55.620Z,489.38
2023-05-14T06:33:55.548Z,506.25
2023-05-14T06:34:55.544Z,528.75
2023-05-14T06:35:58.556Z,545.62
2023-05-14T06:36:55.563Z,545.62
2023-05-14T06:37:55.511Z,545.62
2023-05-14T06:38:55.501Z,540.00
2023-05-14T06:39:57.661Z,528.75
2023-05-14T06:40:55.502Z,523.12
2023-05-14T06:41:55.496Z,506.25
2023-05-14T06:42:55.499Z,489.38
2023-05-14T06:43:55.464Z,472.50
2023-05-14T06:44:55.460Z,461.25
2023-05-14T06:46:55.418Z,444.38
2023-05-14T06:47:55.557Z,438.75
2023-05-14T06:48:58.035Z,427.50
2023-05-14T06:49:55.434Z,421.88
2023-05-14T06:50:58.449Z,421.88
2023-05-14T06:51:55.363Z,421.88
2023-05-14T06:52:55.369Z,427.50
2023-05-14T06:53:55.358Z,427.50
2023-05-14T06:54:55.333Z,444.38
2023-05-14T06:56:55.312Z,506.25
2023-05-14T06:57:55.298Z,540.00
2023-05-14T06:58:55.316Z,568.12
2023-05-14T06:59:55.303Z,585.00
2023-05-14T07:00:55.263Z,596.25
2023-05-14T07:01:55.415Z,596.25
2023-05-14T07:02:55.336Z,607.50
2023-05-14T07:03:55.280Z,613.12
2023-05-14T07:04:55.237Z,635.62
2023-05-14T07:05:58.248Z,646.88
2023-05-14T07:06:55.212Z,635.62
2023-05-14T07:07:55.236Z,630.00
2023-05-14T07:08:55.185Z,624.38
2023-05-14T07:09:55.205Z,635.62
2023-05-14T07:10:55.166Z,646.88
2023-05-14T07:11:55.164Z,669.38
2023-05-14T07:12:55.198Z,697.50
2023-05-14T07:13:55.147Z,748.12
2023-05-14T07:14:55.115Z,804.38
2023-05-14T07:15:55.146Z,855.00
2023-05-14T07:16:55.193Z,894.38
2023-05-14T07:17:55.138Z,922.50
2023-05-14T07:19:55.067Z,973.12
2023-05-14T07:20:58.144Z,990.00
2023-05-14T07:21:55.080Z,984.38
2023-05-14T07:23:55.031Z,961.88
2023-05-14T07:24:55.117Z,950.62
2023-05-14T07:26:55.021Z,900.00
2023-05-14T07:27:54.978Z,866.25
2023-05-14T07:28:55.010Z,821.25
2023-05-14T07:29:54.992Z,781.88
2023-05-14T07:30:54.976Z,742.50
2023-05-14T07:31:55.002Z,714.38
2023-05-14T07:32:55.022Z,669.38
2023-05-14T07:33:54.952Z,641.25
2023-05-14T07:34:54.904Z,607.50
2023-05-14T07:35:57.896Z,596.25
2023-05-14T07:36:54.925Z,590.62
2023-05-14T07:37:54.904Z,596.25
2023-05-14T07:38:54.869Z,624.38
2023-05-14T07:39:54.888Z,641.25
2023-05-14T07:40:54.858Z,675.00
2023-05-14T07:41:54.857Z,720.00
2023-05-14T07:42:54.868Z,770.62
2023-05-14T07:44:54.832Z,866.25
2023-05-14T07:45:54.789Z,928.12
2023-05-14T07:46:54.825Z,1012.50
2023-05-14T07:47:54.856Z,1153.12
2023-05-14T07:48:54.762Z,1372.50
2023-05-14T07:49:54.773Z,2216.25
2023-05-14T07:50:57.737Z,1845.00
2023-05-14T07:52:54.725Z,1676.25
2023-05-14T07:53:54.730Z,1563.75
2023-05-14T07:55:54.721Z,2351.25
2023-05-14T07:57:54.699Z,1856.25
2023-05-14T07:58:54.652Z,1783.12
2023-05-14T07:59:54.655Z,1721.25
2023-05-14T08:00:54.627Z,2227.50
2023-05-14T08:01:54.657Z,3009.38
2023-05-14T08:02:54.844Z,1777.50
2023-05-14T08:03:54.742Z,1732.50
2023-05-14T08:05:57.621Z,1321.88
2023-05-14T08:07:54.614Z,1147.50
2023-05-14T08:09:54.557Z,1147.50
2023-05-14T08:10:54.649Z,1209.38
2023-05-14T08:11:54.540Z,1029.38
2023-05-14T08:12:54.492Z,984.38
2023-05-14T08:13:54.492Z,1012.50
2023-05-14T08:14:54.505Z,1625.62
2023-05-14T08:15:54.507Z,2441.25
2023-05-14T08:16:54.529Z,1732.50
2023-05-14T08:18:54.534Z,1828.12
2023-05-14T08:20:57.870Z,2379.38
2023-05-14T08:22:54.433Z,1620.00
2023-05-14T08:23:54.428Z,1473.75
2023-05-14T08:24:54.377Z,1305.00
2023-05-14T08:25:54.365Z,1029.38
2023-05-14T08:26:54.345Z,1080.00
2023-05-14T08:27:54.347Z,1226.25
2023-05-14T08:28:54.340Z,1063.12
2023-05-14T08:29:54.324Z,967.50
2023-05-14T08:30:54.368Z,1102.50
2023-05-14T08:32:55.328Z,990.00
2023-05-14T08:33:54.300Z,922.50
2023-05-14T08:34:54.304Z,1063.12
2023-05-14T08:35:57.256Z,1243.12
2023-05-14T08:36:54.260Z,1350.00
2023-05-14T08:37:54.267Z,1417.50
2023-05-14T08:38:54.258Z,1434.38
2023-05-14T08:39:54.233Z,1423.12
2023-05-14T08:40:54.229Z,1383.75
2023-05-14T08:41:54.194Z,1355.62
2023-05-14T08:42:54.226Z,1327.50
2023-05-14T08:43:54.184Z,1305.00
2023-05-14T08:44:54.232Z,1282.50
2023-05-14T08:45:54.149Z,1243.12
2023-05-14T08:46:54.173Z,1226.25
2023-05-14T08:47:54.195Z,1141.88
2023-05-14T08:48:54.176Z,1096.88
2023-05-14T08:49:54.149Z,1209.38
2023-05-14T08:50:57.106Z,1479.38
2023-05-14T08:51:54.127Z,1451.25
2023-05-14T08:52:54.106Z,1350.00
2023-05-14T08:53:54.114Z,1417.50
2023-05-14T08:54:54.089Z,1546.88
2023-05-14T08:55:54.086Z,1569.38
2023-05-14T08:56:54.070Z,1794.38
2023-05-14T08:57:54.060Z,2103.75
2023-05-14T08:58:54.039Z,2238.75
2023-05-14T08:59:54.049Z,2598.75
2023-05-14T09:00:54.018Z,1878.75
2023-05-14T09:01:54.217Z,1878.75
2023-05-14T09:02:54.011Z,1766.25
2023-05-14T09:03:54.016Z,1653.75
2023-05-14T09:05:59.887Z,1490.62
2023-05-14T09:06:53.950Z,1473.75
2023-05-14T09:07:53.966Z,1496.25
2023-05-14T09:08:53.934Z,1333.12
2023-05-14T09:09:53.939Z,1406.25
2023-05-14T09:10:53.953Z,1479.38
2023-05-14T09:11:53.887Z,1473.75
2023-05-14T09:12:53.895Z,1569.38
2023-05-14T09:13:53.853Z,1428.75
2023-05-14T09:14:53.851Z,1518.75
2023-05-14T09:15:53.890Z,1625.62
2023-05-14T09:16:53.891Z,1890.00
2023-05-14T09:18:53.936Z,1338.75
2023-05-14T09:19:53.835Z,1462.50
2023-05-14T09:20:56.844Z,1867.50
2023-05-14T09:21:53.807Z,1535.62
2023-05-14T09:23:53.755Z,1541.25
2023-05-14T09:24:53.767Z,1901.25
2023-05-14T09:26:53.729Z,1884.38
2023-05-14T09:27:53.713Z,1423.12
2023-05-14T09:28:53.711Z,1170.00
2023-05-14T09:29:53.688Z,973.12
2023-05-14T09:30:53.714Z,843.75
2023-05-14T09:31:53.862Z,793.12
2023-05-14T09:32:53.676Z,765.00
2023-05-14T09:34:53.641Z,804.38
2023-05-14T09:35:58.294Z,821.25
2023-05-14T09:36:53.647Z,821.25
2023-05-14T09:38:53.622Z,787.50
2023-05-14T09:39:53.612Z,810.00
2023-05-14T09:40:53.660Z,894.38
2023-05-14T09:41:53.594Z,990.00
2023-05-14T09:43:53.550Z,1102.50
2023-05-14T09:44:53.537Z,1147.50
2023-05-14T09:45:53.567Z,1237.50
2023-05-14T09:46:53.581Z,1271.25
2023-05-14T09:47:53.711Z,1333.12
2023-05-14T09:48:53.528Z,1372.50
2023-05-14T09:49:53.504Z,1333.12
2023-05-14T09:50:56.471Z,1355.62
2023-05-14T09:51:53.496Z,1411.88
2023-05-14T09:52:53.476Z,1400.62
2023-05-14T09:54:53.433Z,1378.12
2023-05-14T09:55:53.438Z,1378.12
2023-05-14T09:56:55.461Z,1383.75
2023-05-14T09:57:53.403Z,1276.88
2023-05-14T09:58:53.422Z,1231.88
2023-05-14T09:59:53.380Z,1265.62
2023-05-14T10:00:53.468Z,1271.25
2023-05-14T10:01:53.362Z,1276.88
2023-05-14T10:02:53.475Z,1260.00
2023-05-14T10:03:53.384Z,1209.38
2023-05-14T10:04:53.464Z,1175.62
2023-05-14T10:05:56.362Z,1147.50
2023-05-14T10:06:53.337Z,1119.38
2023-05-14T10:07:53.321Z,1125.00
2023-05-14T10:08:53.334Z,1125.00
2023-05-14T10:09:53.327Z,1096.88
2023-05-14T10:10:53.294Z,1085.62
2023-05-14T10:11:53.330Z,1068.75
2023-05-14T10:12:53.480Z,1029.38
2023-05-14T10:13:53.263Z,1029.38
2023-05-14T10:14:53.245Z,1029.38
2023-05-14T10:15:53.252Z,1040.62
2023-05-14T10:16:53.284Z,1051.88
2023-05-14T10:17:53.274Z,1057.50
2023-05-14T10:18:54.192Z,1068.75
2023-05-14T10:19:53.173Z,1068.75
2023-05-14T10:20:56.185Z,1085.62
2023-05-14T10:21:53.190Z,1108.12
2023-05-14T10:23:53.198Z,1164.38
2023-05-14T10:24:53.124Z,1209.38
2023-05-14T10:25:53.147Z,1271.25
2023-05-14T10:26:53.092Z,1327.50
2023-05-14T10:27:53.084Z,1423.12
2023-05-14T10:29:53.102Z,1586.25
2023-05-14T10:30:53.156Z,1670.62
2023-05-14T10:32:53.092Z,1816.88
2023-05-14T10:34:53.035Z,1974.38
2023-05-14T10:35:56.143Z,2188.12
2023-05-14T10:36:53.026Z,2728.12
2023-05-14T10:37:53.008Z,2351.25
2023-05-14T10:39:52.968Z,2750.62
2023-05-14T10:40:54.228Z,2418.75
2023-05-14T10:42:52.954Z,1985.62
2023-05-14T10:44:52.912Z,1726.88
2023-05-14T10:45:52.931Z,1665.00
2023-05-14T10:46:52.976Z,1575.00
2023-05-14T10:47:52.945Z,1530.00
2023-05-14T10:48:52.869Z,1501.88
2023-05-14T10:49:52.881Z,1417.50
2023-05-14T10:50:55.906Z,1321.88
2023-05-14T10:52:52.862Z,1226.25
2023-05-14T10:53:52.847Z,1260.00
2023-05-14T10:55:52.823Z,1265.62
2023-05-14T10:57:52.823Z,1175.62
2023-05-14T10:58:52.811Z,1035.00
2023-05-14T10:59:52.748Z,973.12
2023-05-14T11:00:52.768Z,1006.88
2023-05-14T11:02:52.816Z,1254.38
2023-05-14T11:03:52.861Z,1479.38
2023-05-14T11:04:52.729Z,1659.38
2023-05-14T11:05:55.729Z,1417.50
2023-05-14T11:06:52.918Z,1428.75
2023-05-14T11:07:52.731Z,1451.25
2023-05-14T11:08:52.660Z,1468.12
2023-05-14T11:09:52.653Z,1468.12
2023-05-14T11:10:52.641Z,1451.25
2023-05-14T11:11:52.741Z,1440.00
2023-05-14T11:13:52.636Z,1462.50
2023-05-14T11:14:52.600Z,1518.75
2023-05-14T11:15:52.624Z,1428.75
2023-05-14T11:16:52.676Z,1321.88
2023-05-14T11:18:52.589Z,1282.50
2023-05-14T11:19:52.579Z,1282.50
2023-05-14T11:20:55.553Z,1288.12
2023-05-14T11:21:52.526Z,1310.62
2023-05-14T11:22:52.555Z,1361.25
2023-05-14T11:23:52.515Z,1395.00
2023-05-14T11:24:52.554Z,1378.12
2023-05-14T11:25:52.584Z,1501.88
2023-05-14T11:26:52.485Z,1681.88
2023-05-14T11:27:52.465Z,1833.75
2023-05-14T11:28:52.497Z,1873.12
2023-05-14T11:30:52.424Z,1895.62
2023-05-14T11:31:52.495Z,2019.38
2023-05-14T11:32:52.422Z,2655.00
2023-05-14T11:33:52.400Z,4325.62
2023-05-14T11:34:52.416Z,5416.88
2023-05-14T11:35:55.382Z,5636.25
2023-05-14T11:36:52.386Z,5079.38
2023-05-14T11:37:52.458Z,2941.88
2023-05-14T11:38:52.739Z,3133.12
2023-05-14T11:40:52.326Z,4111.88
2023-05-14T11:41:52.341Z,4719.38
2023-05-14T11:42:52.356Z,4685.62
2023-05-14T11:43:52.325Z,4640.62
2023-05-14T11:45:52.321Z,3667.50
2023-05-14T11:46:52.290Z,2064.38
2023-05-14T11:47:52.322Z,2013.75
2023-05-14T11:48:52.245Z,2677.50
2023-05-14T11:49:52.260Z,2998.12
2023-05-14T11:50:55.221Z,3796.88
2023-05-14T11:51:52.247Z,4657.50
2023-05-14T11:52:52.211Z,4916.25
2023-05-14T11:53:52.219Z,2441.25
2023-05-14T11:54:52.218Z,2508.75
2023-05-14T11:55:52.224Z,2385.00
2023-05-14T11:57:52.150Z,2722.50
2023-05-14T11:58:52.160Z,2908.12
2023-05-14T12:00:52.155Z,2913.75
2023-05-14T12:01:52.136Z,4550.62
2023-05-14T12:02:52.154Z,3988.12
2023-05-14T12:03:52.343Z,3960.00
2023-05-14T12:04:52.190Z,4066.88
2023-05-14T12:05:55.086Z,5281.88
2023-05-14T12:06:52.149Z,3740.62
2023-05-14T12:07:52.059Z,3020.62
2023-05-14T12:08:52.044Z,2823.75
2023-05-14T12:09:52.070Z,2711.25
2023-05-14T12:10:52.026Z,2362.50
2023-05-14T12:11:52.041Z,2188.12
2023-05-14T12:13:52.003Z,2351.25
2023-05-14T12:14:51.963Z,2306.25
2023-05-14T12:15:52.001Z,2401.88
2023-05-14T12:16:51.993Z,2891.25
2023-05-14T12:18:51.988Z,1743.75
2023-05-14T12:19:51.941Z,1372.50
2023-05-14T12:20:54.944Z,1333.12
2023-05-14T12:21:51.919Z,1912.50
2023-05-14T12:22:51.916Z,1468.12
2023-05-14T12:23:51.904Z,1366.88
2023-05-14T12:25:51.901Z,1293.75
2023-05-14T12:26:52.845Z,1254.38
2023-05-14T12:28:51.840Z,1198.12
2023-05-14T12:29:51.806Z,1170.00
2023-05-14T12:30:51.836Z,1130.62
2023-05-14T12:31:51.979Z,1096.88
2023-05-14T12:33:51.990Z,1063.12
2023-05-14T12:35:54.796Z,1130.62
2023-05-14T12:36:52.760Z,1198.12
2023-05-14T12:38:51.714Z,1305.00
2023-05-14T12:39:51.749Z,1316.25
2023-05-14T12:41:51.720Z,1395.00
2023-05-14T12:42:51.739Z,1490.62
2023-05-14T12:43:51.743Z,1462.50
2023-05-14T12:44:51.875Z,1462.50
2023-05-14T12:46:51.656Z,1215.00
2023-05-14T12:47:51.670Z,973.12
2023-05-14T12:48:53.338Z,793.12
2023-05-14T12:49:51.671Z,691.88
2023-05-14T12:50:54.858Z,641.25
2023-05-14T12:51:59.675Z,613.12
2023-05-14T12:52:52.605Z,601.88
2023-05-14T12:53:51.609Z,590.62
2023-05-14T12:54:51.716Z,585.00
2023-05-14T12:57:51.650Z,551.25
2023-05-14T12:58:51.555Z,545.62
2023-05-14T12:59:51.517Z,540.00
2023-05-14T13:00:51.651Z,528.75
2023-05-14T13:01:51.501Z,540.00
2023-05-14T13:02:51.556Z,556.88
2023-05-14T13:04:51.492Z,618.75
2023-05-14T13:05:54.489Z,663.75
2023-05-14T13:07:51.414Z,753.75
2023-05-14T13:08:51.476Z,810.00
2023-05-14T13:09:51.473Z,855.00
2023-05-14T13:11:51.402Z,984.38
2023-05-14T13:12:51.400Z,1057.50
2023-05-14T13:13:51.489Z,1141.88
2023-05-14T13:14:51.352Z,1310.62
2023-05-14T13:15:51.359Z,1867.50
2023-05-14T13:16:51.388Z,2193.75
2023-05-14T13:17:51.424Z,1490.62
2023-05-14T13:18:51.357Z,1406.25
2023-05-14T13:19:51.343Z,1428.75
2023-05-14T13:20:54.285Z,1490.62
2023-05-14T13:21:51.280Z,1541.25
2023-05-14T13:22:51.495Z,1586.25
2023-05-14T13:24:51.268Z,1828.12
2023-05-14T13:25:51.355Z,2323.12
2023-05-14T13:26:51.255Z,2790.00
2023-05-14T13:27:51.282Z,2570.62
2023-05-14T13:29:51.221Z,1080.00
2023-05-14T13:30:51.351Z,1023.75
2023-05-14T13:31:51.214Z,1006.88
2023-05-14T13:33:51.156Z,1035.00
2023-05-14T13:34:51.161Z,1068.75
2023-05-14T13:35:54.172Z,1108.12
2023-05-14T13:36:51.121Z,1164.38
2023-05-14T13:37:51.169Z,1220.62
2023-05-14T13:38:51.277Z,1282.50
2023-05-14T13:39:51.578Z,1316.25
2023-05-14T13:40:51.161Z,1321.88
2023-05-14T13:41:51.082Z,1333.12
2023-05-14T13:42:51.069Z,1355.62
2023-05-14T13:43:51.194Z,1395.00
2023-05-14T13:44:52.058Z,1417.50
2023-05-14T13:45:51.054Z,1411.88
2023-05-14T13:46:51.197Z,1490.62
2023-05-14T13:47:51.768Z,1440.00
2023-05-14T13:48:51.081Z,1496.25